sensor_id;sensor_type;location;lat;lon;timestamp;temperature;humidity
8475;DHT22;4274;52.012;8.448;2022-09-09T00:04:00;14.90;99.90
8475;DHT22;4274;52.012;8.448;2022-09-09T00:06:43;14.90;99.90
8475;DHT22;4274;52.012;8.448;2022-09-09T00:09:17;14.90;99.90
8475;DHT22;4274;52.012;8.448;2022-09-09T00:11:51;14.90;99.90
8475;DHT22;4274;52.012;8.448;2022-09-09T00:14:45;14.90;99.90
8475;DHT22;4274;52.012;8.448;2022-09-09T00:17:32;14.90;99.90
8475;DHT22;4274;52.012;8.448;2022-09-09T00:20:05;14.90;99.90
8475;DHT22;4274;52.012;8.448;2022-09-09T00:22:40;14.90;99.90
8475;DHT22;4274;52.012;8.448;2022-09-09T00:25:26;15.00;99.90
8475;DHT22;4274;52.012;8.448;2022-09-09T00:27:54;15.00;99.90
8475;DHT22;4274;52.012;8.448;2022-09-09T00:30:25;15.00;99.90
8475;DHT22;4274;52.012;8.448;2022-09-09T00:32:59;15.10;99.90
8475;DHT22;4274;52.012;8.448;2022-09-09T00:35:39;15.10;99.90
8475;DHT22;4274;52.012;8.448;2022-09-09T00:38:35;15.10;99.90
8475;DHT22;4274;52.012;8.448;2022-09-09T00:41:21;15.00;99.90
8475;DHT22;4274;52.012;8.448;2022-09-09T00:52:32;14.90;99.90
8475;DHT22;4274;52.012;8.448;2022-09-09T00:55:07;14.80;99.90
8475;DHT22;4274;52.012;8.448;2022-09-09T00:57:38;14.80;99.90
8475;DHT22;4274;52.012;8.448;2022-09-09T01:02:56;14.80;99.90
8475;DHT22;4274;52.012;8.448;2022-09-09T01:07:58;14.70;99.90
8475;DHT22;4274;52.012;8.448;2022-09-09T01:10:50;14.80;99.90
8475;DHT22;4274;52.012;8.448;2022-09-09T01:13:28;14.80;99.90
8475;DHT22;4274;52.012;8.448;2022-09-09T01:15:58;14.80;99.90
8475;DHT22;4274;52.012;8.448;2022-09-09T01:18:27;14.80;99.90
8475;DHT22;4274;52.012;8.448;2022-09-09T01:26:30;14.70;99.90
8475;DHT22;4274;52.012;8.448;2022-09-09T01:28:56;14.70;99.90
8475;DHT22;4274;52.012;8.448;2022-09-09T01:31:27;14.70;99.90
8475;DHT22;4274;52.012;8.448;2022-09-09T01:33:53;14.70;99.90
8475;DHT22;4274;52.012;8.448;2022-09-09T01:39:20;14.80;99.90
8475;DHT22;4274;52.012;8.448;2022-09-09T01:41:46;14.80;99.90
8475;DHT22;4274;52.012;8.448;2022-09-09T01:44:12;14.80;99.90
8475;DHT22;4274;52.012;8.448;2022-09-09T01:46:38;14.80;99.90
8475;DHT22;4274;52.012;8.448;2022-09-09T01:49:05;14.80;99.90
8475;DHT22;4274;52.012;8.448;2022-09-09T01:51:33;14.80;99.90
8475;DHT22;4274;52.012;8.448;2022-09-09T01:53:59;14.90;99.90
8475;DHT22;4274;52.012;8.448;2022-09-09T01:56:35;14.90;99.90
8475;DHT22;4274;52.012;8.448;2022-09-09T01:59:24;14.90;99.90
8475;DHT22;4274;52.012;8.448;2022-09-09T02:01:57;14.90;99.90
8475;DHT22;4274;52.012;8.448;2022-09-09T02:04:41;14.90;99.90
8475;DHT22;4274;52.012;8.448;2022-09-09T02:07:26;14.90;99.90
8475;DHT22;4274;52.012;8.448;2022-09-09T02:10:20;14.90;99.90
8475;DHT22;4274;52.012;8.448;2022-09-09T02:12:50;14.80;99.90
8475;DHT22;4274;52.012;8.448;2022-09-09T02:15:28;14.80;99.90
8475;DHT22;4274;52.012;8.448;2022-09-09T02:17:57;14.80;99.90
8475;DHT22;4274;52.012;8.448;2022-09-09T02:20:24;14.80;99.90
8475;DHT22;4274;52.012;8.448;2022-09-09T02:22:53;14.80;99.90
8475;DHT22;4274;52.012;8.448;2022-09-09T02:25:22;14.80;99.90
8475;DHT22;4274;52.012;8.448;2022-09-09T02:27:50;14.80;99.90
8475;DHT22;4274;52.012;8.448;2022-09-09T02:30:17;14.70;99.90
8475;DHT22;4274;52.012;8.448;2022-09-09T02:32:44;14.80;99.90
8475;DHT22;4274;52.012;8.448;2022-09-09T02:35:14;14.80;99.90
8475;DHT22;4274;52.012;8.448;2022-09-09T02:37:41;14.80;99.90
8475;DHT22;4274;52.012;8.448;2022-09-09T02:40:10;14.80;99.90
8475;DHT22;4274;52.012;8.448;2022-09-09T02:42:40;14.70;99.90
8475;DHT22;4274;52.012;8.448;2022-09-09T02:45:07;14.70;99.90
8475;DHT22;4274;52.012;8.448;2022-09-09T02:50:29;14.80;99.90
8475;DHT22;4274;52.012;8.448;2022-09-09T02:53:17;14.80;99.90
8475;DHT22;4274;52.012;8.448;2022-09-09T02:55:48;14.80;99.90
8475;DHT22;4274;52.012;8.448;2022-09-09T02:58:18;14.80;99.90
8475;DHT22;4274;52.012;8.448;2022-09-09T03:00:46;14.70;99.90
8475;DHT22;4274;52.012;8.448;2022-09-09T03:03:12;14.70;99.90
8475;DHT22;4274;52.012;8.448;2022-09-09T03:05:38;14.80;99.90
8475;DHT22;4274;52.012;8.448;2022-09-09T03:08:05;14.70;99.90
8475;DHT22;4274;52.012;8.448;2022-09-09T03:10:31;14.70;99.90
8475;DHT22;4274;52.012;8.448;2022-09-09T03:12:57;14.70;99.90
8475;DHT22;4274;52.012;8.448;2022-09-09T03:15:23;14.70;99.90
8475;DHT22;4274;52.012;8.448;2022-09-09T03:17:48;14.70;99.90
8475;DHT22;4274;52.012;8.448;2022-09-09T03:20:14;14.70;99.90
8475;DHT22;4274;52.012;8.448;2022-09-09T03:22:40;14.70;99.90
8475;DHT22;4274;52.012;8.448;2022-09-09T03:25:06;14.70;99.90
8475;DHT22;4274;52.012;8.448;2022-09-09T03:27:32;14.70;99.90
8475;DHT22;4274;52.012;8.448;2022-09-09T03:29:58;14.70;99.90
8475;DHT22;4274;52.012;8.448;2022-09-09T03:32:24;14.70;99.90
8475;DHT22;4274;52.012;8.448;2022-09-09T03:34:51;14.70;99.90
8475;DHT22;4274;52.012;8.448;2022-09-09T03:37:18;14.70;99.90
8475;DHT22;4274;52.012;8.448;2022-09-09T03:39:43;14.70;99.90
8475;DHT22;4274;52.012;8.448;2022-09-09T03:42:12;14.60;99.90
8475;DHT22;4274;52.012;8.448;2022-09-09T03:44:37;14.60;99.90
8475;DHT22;4274;52.012;8.448;2022-09-09T03:47:03;14.60;99.90
8475;DHT22;4274;52.012;8.448;2022-09-09T03:49:28;14.60;99.90
8475;DHT22;4274;52.012;8.448;2022-09-09T03:51:55;14.60;99.90
8475;DHT22;4274;52.012;8.448;2022-09-09T03:54:23;14.50;99.90
8475;DHT22;4274;52.012;8.448;2022-09-09T03:56:49;14.60;99.90
8475;DHT22;4274;52.012;8.448;2022-09-09T03:59:14;14.50;99.90
8475;DHT22;4274;52.012;8.448;2022-09-09T04:01:40;14.60;99.90
8475;DHT22;4274;52.012;8.448;2022-09-09T04:04:05;14.60;99.90
8475;DHT22;4274;52.012;8.448;2022-09-09T04:06:31;14.60;99.90
8475;DHT22;4274;52.012;8.448;2022-09-09T04:08:57;14.60;99.90
8475;DHT22;4274;52.012;8.448;2022-09-09T04:11:22;14.60;99.90
8475;DHT22;4274;52.012;8.448;2022-09-09T04:13:48;14.60;99.90
8475;DHT22;4274;52.012;8.448;2022-09-09T04:16:14;14.60;99.90
8475;DHT22;4274;52.012;8.448;2022-09-09T04:18:40;14.60;99.90
8475;DHT22;4274;52.012;8.448;2022-09-09T04:21:06;14.70;99.90
8475;DHT22;4274;52.012;8.448;2022-09-09T04:23:33;14.70;99.90
8475;DHT22;4274;52.012;8.448;2022-09-09T04:26:01;14.70;99.90
8475;DHT22;4274;52.012;8.448;2022-09-09T04:28:30;14.70;99.90
8475;DHT22;4274;52.012;8.448;2022-09-09T04:30:56;14.80;99.90
8475;DHT22;4274;52.012;8.448;2022-09-09T04:33:25;14.80;99.90
8475;DHT22;4274;52.012;8.448;2022-09-09T04:35:53;14.80;99.90
8475;DHT22;4274;52.012;8.448;2022-09-09T04:38:19;14.80;99.90
8475;DHT22;4274;52.012;8.448;2022-09-09T04:40:49;14.70;99.90
8475;DHT22;4274;52.012;8.448;2022-09-09T04:43:15;14.70;99.90
8475;DHT22;4274;52.012;8.448;2022-09-09T04:45:42;14.70;99.90
8475;DHT22;4274;52.012;8.448;2022-09-09T04:48:08;14.70;99.90
8475;DHT22;4274;52.012;8.448;2022-09-09T04:50:35;14.70;99.90
8475;DHT22;4274;52.012;8.448;2022-09-09T04:53:04;14.70;99.90
8475;DHT22;4274;52.012;8.448;2022-09-09T04:55:30;14.70;99.90
8475;DHT22;4274;52.012;8.448;2022-09-09T04:57:56;14.70;99.90
8475;DHT22;4274;52.012;8.448;2022-09-09T05:00:26;14.70;99.90
8475;DHT22;4274;52.012;8.448;2022-09-09T05:02:51;14.70;99.90
8475;DHT22;4274;52.012;8.448;2022-09-09T05:05:17;14.70;99.90
8475;DHT22;4274;52.012;8.448;2022-09-09T05:07:43;14.70;99.90
8475;DHT22;4274;52.012;8.448;2022-09-09T05:10:09;14.80;99.90
8475;DHT22;4274;52.012;8.448;2022-09-09T05:12:35;14.80;99.90
8475;DHT22;4274;52.012;8.448;2022-09-09T05:15:01;14.80;99.90
8475;DHT22;4274;52.012;8.448;2022-09-09T05:17:27;14.70;99.90
8475;DHT22;4274;52.012;8.448;2022-09-09T05:19:53;14.80;99.90
8475;DHT22;4274;52.012;8.448;2022-09-09T05:22:22;14.80;99.90
8475;DHT22;4274;52.012;8.448;2022-09-09T05:24:49;14.80;99.90
8475;DHT22;4274;52.012;8.448;2022-09-09T05:27:17;14.80;99.90
8475;DHT22;4274;52.012;8.448;2022-09-09T05:29:45;14.90;99.90
8475;DHT22;4274;52.012;8.448;2022-09-09T05:32:11;14.90;99.90
8475;DHT22;4274;52.012;8.448;2022-09-09T05:34:36;14.90;99.90
8475;DHT22;4274;52.012;8.448;2022-09-09T05:37:05;14.90;99.90
8475;DHT22;4274;52.012;8.448;2022-09-09T05:39:32;15.00;99.90
8475;DHT22;4274;52.012;8.448;2022-09-09T05:41:58;15.00;99.90
8475;DHT22;4274;52.012;8.448;2022-09-09T05:44:23;15.00;99.90
8475;DHT22;4274;52.012;8.448;2022-09-09T05:46:52;15.00;99.90
8475;DHT22;4274;52.012;8.448;2022-09-09T05:49:19;15.00;99.90
8475;DHT22;4274;52.012;8.448;2022-09-09T05:51:45;15.10;99.90
8475;DHT22;4274;52.012;8.448;2022-09-09T05:54:10;15.10;99.90
8475;DHT22;4274;52.012;8.448;2022-09-09T05:56:37;15.20;99.90
8475;DHT22;4274;52.012;8.448;2022-09-09T05:59:02;15.20;99.90
8475;DHT22;4274;52.012;8.448;2022-09-09T06:01:31;15.30;99.90
8475;DHT22;4274;52.012;8.448;2022-09-09T06:03:57;15.40;99.90
8475;DHT22;4274;52.012;8.448;2022-09-09T06:06:25;15.50;99.90
8475;DHT22;4274;52.012;8.448;2022-09-09T06:08:52;15.60;99.90
8475;DHT22;4274;52.012;8.448;2022-09-09T06:11:23;15.60;99.90
8475;DHT22;4274;52.012;8.448;2022-09-09T06:13:50;15.70;99.90
8475;DHT22;4274;52.012;8.448;2022-09-09T06:16:22;15.70;99.90
8475;DHT22;4274;52.012;8.448;2022-09-09T06:18:52;15.70;99.90
8475;DHT22;4274;52.012;8.448;2022-09-09T06:21:20;15.70;99.90
8475;DHT22;4274;52.012;8.448;2022-09-09T06:23:47;15.70;99.90
8475;DHT22;4274;52.012;8.448;2022-09-09T06:26:22;15.70;99.90
8475;DHT22;4274;52.012;8.448;2022-09-09T06:28:49;15.80;99.90
8475;DHT22;4274;52.012;8.448;2022-09-09T06:31:23;15.80;99.90
8475;DHT22;4274;52.012;8.448;2022-09-09T06:33:53;15.90;99.90
8475;DHT22;4274;52.012;8.448;2022-09-09T06:36:31;16.00;99.90
8475;DHT22;4274;52.012;8.448;2022-09-09T06:38:57;16.10;99.90
8475;DHT22;4274;52.012;8.448;2022-09-09T06:41:28;16.30;99.90
8475;DHT22;4274;52.012;8.448;2022-09-09T06:43:54;16.60;99.90
8475;DHT22;4274;52.012;8.448;2022-09-09T06:46:25;16.70;99.90
8475;DHT22;4274;52.012;8.448;2022-09-09T06:48:56;16.80;99.90
8475;DHT22;4274;52.012;8.448;2022-09-09T06:51:26;16.80;99.90
8475;DHT22;4274;52.012;8.448;2022-09-09T06:53:54;16.80;99.90
8475;DHT22;4274;52.012;8.448;2022-09-09T06:56:28;16.70;99.90
8475;DHT22;4274;52.012;8.448;2022-09-09T06:58:56;16.60;99.90
8475;DHT22;4274;52.012;8.448;2022-09-09T07:01:27;16.50;99.90
8475;DHT22;4274;52.012;8.448;2022-09-09T07:03:55;16.40;99.90
8475;DHT22;4274;52.012;8.448;2022-09-09T07:09:02;16.30;99.90
8475;DHT22;4274;52.012;8.448;2022-09-09T07:11:32;16.30;99.90
8475;DHT22;4274;52.012;8.448;2022-09-09T07:13:59;16.40;99.90
8475;DHT22;4274;52.012;8.448;2022-09-09T07:16:25;16.50;99.90
8475;DHT22;4274;52.012;8.448;2022-09-09T07:18:53;16.50;99.90
8475;DHT22;4274;52.012;8.448;2022-09-09T07:21:20;16.60;99.90
8475;DHT22;4274;52.012;8.448;2022-09-09T07:23:46;16.70;99.90
8475;DHT22;4274;52.012;8.448;2022-09-09T07:26:14;16.70;99.90
8475;DHT22;4274;52.012;8.448;2022-09-09T07:28:41;16.80;99.90
8475;DHT22;4274;52.012;8.448;2022-09-09T07:31:08;16.90;99.90
8475;DHT22;4274;52.012;8.448;2022-09-09T07:33:39;17.00;99.90
8475;DHT22;4274;52.012;8.448;2022-09-09T07:36:12;17.00;99.90
8475;DHT22;4274;52.012;8.448;2022-09-09T07:38:43;17.10;99.90
8475;DHT22;4274;52.012;8.448;2022-09-09T07:41:13;17.10;99.90
8475;DHT22;4274;52.012;8.448;2022-09-09T07:43:44;17.10;99.90
8475;DHT22;4274;52.012;8.448;2022-09-09T07:46:10;17.10;99.90
8475;DHT22;4274;52.012;8.448;2022-09-09T07:48:37;17.10;99.90
8475;DHT22;4274;52.012;8.448;2022-09-09T07:51:15;17.10;99.90
8475;DHT22;4274;52.012;8.448;2022-09-09T07:53:46;17.20;99.90
8475;DHT22;4274;52.012;8.448;2022-09-09T07:56:14;17.20;99.90
8475;DHT22;4274;52.012;8.448;2022-09-09T07:58:42;17.40;99.90
8475;DHT22;4274;52.012;8.448;2022-09-09T08:01:09;17.40;99.90
8475;DHT22;4274;52.012;8.448;2022-09-09T08:03:36;17.50;99.90
8475;DHT22;4274;52.012;8.448;2022-09-09T08:06:07;17.50;99.90
8475;DHT22;4274;52.012;8.448;2022-09-09T08:08:35;17.70;99.90
8475;DHT22;4274;52.012;8.448;2022-09-09T08:11:07;17.80;99.90
8475;DHT22;4274;52.012;8.448;2022-09-09T08:13:36;18.10;99.90
8475;DHT22;4274;52.012;8.448;2022-09-09T08:16:16;18.50;99.90
8475;DHT22;4274;52.012;8.448;2022-09-09T08:18:42;19.00;99.90
8475;DHT22;4274;52.012;8.448;2022-09-09T08:21:13;19.50;99.90
8475;DHT22;4274;52.012;8.448;2022-09-09T08:23:42;20.00;99.90
8475;DHT22;4274;52.012;8.448;2022-09-09T08:26:14;20.40;99.90
8475;DHT22;4274;52.012;8.448;2022-09-09T08:28:41;20.60;99.90
8475;DHT22;4274;52.012;8.448;2022-09-09T08:31:13;20.70;99.90
8475;DHT22;4274;52.012;8.448;2022-09-09T08:33:39;20.80;99.90
8475;DHT22;4274;52.012;8.448;2022-09-09T08:36:08;20.70;99.90
8475;DHT22;4274;52.012;8.448;2022-09-09T08:38:34;20.60;99.90
8475;DHT22;4274;52.012;8.448;2022-09-09T08:43:50;20.10;99.90
8475;DHT22;4274;52.012;8.448;2022-09-09T08:46:27;19.80;99.90
8475;DHT22;4274;52.012;8.448;2022-09-09T08:48:58;19.60;99.90
8475;DHT22;4274;52.012;8.448;2022-09-09T08:51:30;19.40;99.90
8475;DHT22;4274;52.012;8.448;2022-09-09T08:53:58;19.30;99.90
8475;DHT22;4274;52.012;8.448;2022-09-09T08:56:27;19.10;99.90
8475;DHT22;4274;52.012;8.448;2022-09-09T08:58:56;18.90;99.90
8475;DHT22;4274;52.012;8.448;2022-09-09T09:07:32;18.70;99.90
8475;DHT22;4274;52.012;8.448;2022-09-09T09:11:02;18.60;99.90
8475;DHT22;4274;52.012;8.448;2022-09-09T09:12:58;18.50;99.90
8475;DHT22;4274;52.012;8.448;2022-09-09T09:15:28;18.40;99.90
8475;DHT22;4274;52.012;8.448;2022-09-09T09:17:55;18.40;99.90
8475;DHT22;4274;52.012;8.448;2022-09-09T09:20:30;18.60;99.90
8475;DHT22;4274;52.012;8.448;2022-09-09T09:23:00;18.60;99.90
8475;DHT22;4274;52.012;8.448;2022-09-09T09:25:35;18.60;99.90
8475;DHT22;4274;52.012;8.448;2022-09-09T09:28:17;18.70;99.90
8475;DHT22;4274;52.012;8.448;2022-09-09T09:30:50;18.70;99.90
8475;DHT22;4274;52.012;8.448;2022-09-09T09:33:22;19.00;99.90
8475;DHT22;4274;52.012;8.448;2022-09-09T09:35:50;19.30;99.90
8475;DHT22;4274;52.012;8.448;2022-09-09T09:38:24;19.80;99.90
8475;DHT22;4274;52.012;8.448;2022-09-09T09:40:56;20.50;99.90
8475;DHT22;4274;52.012;8.448;2022-09-09T09:43:36;21.30;99.90
8475;DHT22;4274;52.012;8.448;2022-09-09T09:46:05;22.40;99.90
8475;DHT22;4274;52.012;8.448;2022-09-09T09:48:43;23.60;99.90
8475;DHT22;4274;52.012;8.448;2022-09-09T09:51:14;23.90;99.90
8475;DHT22;4274;52.012;8.448;2022-09-09T09:53:42;23.50;99.90
8475;DHT22;4274;52.012;8.448;2022-09-09T09:56:13;22.90;99.90
8475;DHT22;4274;52.012;8.448;2022-09-09T10:01:24;21.90;99.90
8475;DHT22;4274;52.012;8.448;2022-09-09T10:03:57;22.00;99.90
8475;DHT22;4274;52.012;8.448;2022-09-09T10:06:34;22.30;99.90
8475;DHT22;4274;52.012;8.448;2022-09-09T10:09:02;22.60;99.90
8475;DHT22;4274;52.012;8.448;2022-09-09T10:14:15;23.40;99.90
8475;DHT22;4274;52.012;8.448;2022-09-09T10:19:42;23.70;99.90
8475;DHT22;4274;52.012;8.448;2022-09-09T10:22:28;23.80;99.90
8475;DHT22;4274;52.012;8.448;2022-09-09T10:36:19;26.50;99.90
8475;DHT22;4274;52.012;8.448;2022-09-09T10:38:47;26.00;99.90
8475;DHT22;4274;52.012;8.448;2022-09-09T10:41:21;25.50;99.90
8475;DHT22;4274;52.012;8.448;2022-09-09T10:57:18;28.80;98.00
8475;DHT22;4274;52.012;8.448;2022-09-09T10:59:49;29.50;97.70
8475;DHT22;4274;52.012;8.448;2022-09-09T11:02:29;30.00;96.10
8475;DHT22;4274;52.012;8.448;2022-09-09T11:05:00;30.20;95.00
8475;DHT22;4274;52.012;8.448;2022-09-09T11:13:05;30.00;94.80
8475;DHT22;4274;52.012;8.448;2022-09-09T11:15:44;29.80;93.70
8475;DHT22;4274;52.012;8.448;2022-09-09T11:18:16;29.80;93.30
8475;DHT22;4274;52.012;8.448;2022-09-09T11:20:44;29.50;94.00
8475;DHT22;4274;52.012;8.448;2022-09-09T11:23:18;29.60;94.40
8475;DHT22;4274;52.012;8.448;2022-09-09T11:25:52;29.60;93.40
8475;DHT22;4274;52.012;8.448;2022-09-09T11:31:43;30.40;92.60
8475;DHT22;4274;52.012;8.448;2022-09-09T11:34:33;30.60;92.00
8475;DHT22;4274;52.012;8.448;2022-09-09T11:42:22;30.30;91.60
8475;DHT22;4274;52.012;8.448;2022-09-09T11:44:49;29.50;92.30
8475;DHT22;4274;52.012;8.448;2022-09-09T11:49:47;27.50;93.80
8475;DHT22;4274;52.012;8.448;2022-09-09T11:52:36;26.60;94.40
8475;DHT22;4274;52.012;8.448;2022-09-09T11:55:25;25.50;95.50
8475;DHT22;4274;52.012;8.448;2022-09-09T12:00:40;24.30;97.10
8475;DHT22;4274;52.012;8.448;2022-09-09T12:03:46;25.30;98.20
8475;DHT22;4274;52.012;8.448;2022-09-09T12:06:27;26.90;95.60
8475;DHT22;4274;52.012;8.448;2022-09-09T12:09:08;28.00;94.80
8475;DHT22;4274;52.012;8.448;2022-09-09T12:11:37;28.70;92.60
8475;DHT22;4274;52.012;8.448;2022-09-09T12:14:03;29.00;93.30
8475;DHT22;4274;52.012;8.448;2022-09-09T12:16:37;29.40;94.00
8475;DHT22;4274;52.012;8.448;2022-09-09T12:19:16;29.70;92.60
8475;DHT22;4274;52.012;8.448;2022-09-09T12:21:58;29.50;90.20
8475;DHT22;4274;52.012;8.448;2022-09-09T12:24:42;28.90;91.00
8475;DHT22;4274;52.012;8.448;2022-09-09T12:30:12;26.90;92.50
8475;DHT22;4274;52.012;8.448;2022-09-09T12:32:39;27.40;92.40
8475;DHT22;4274;52.012;8.448;2022-09-09T12:35:26;27.90;91.80
8475;DHT22;4274;52.012;8.448;2022-09-09T12:37:59;26.90;91.90
8475;DHT22;4274;52.012;8.448;2022-09-09T12:40:28;26.30;93.20
8475;DHT22;4274;52.012;8.448;2022-09-09T12:42:54;25.90;93.60
8475;DHT22;4274;52.012;8.448;2022-09-09T12:45:25;25.50;93.50
8475;DHT22;4274;52.012;8.448;2022-09-09T12:47:53;25.20;95.00
8475;DHT22;4274;52.012;8.448;2022-09-09T12:50:22;24.90;95.00
8475;DHT22;4274;52.012;8.448;2022-09-09T12:52:52;24.40;95.30
8475;DHT22;4274;52.012;8.448;2022-09-09T12:55:25;23.90;95.90
8475;DHT22;4274;52.012;8.448;2022-09-09T12:57:53;23.40;95.70
8475;DHT22;4274;52.012;8.448;2022-09-09T13:00:23;22.90;96.60
8475;DHT22;4274;52.012;8.448;2022-09-09T13:02:54;22.70;97.10
8475;DHT22;4274;52.012;8.448;2022-09-09T13:05:26;22.60;97.20
8475;DHT22;4274;52.012;8.448;2022-09-09T13:08:01;22.70;97.10
8475;DHT22;4274;52.012;8.448;2022-09-09T13:10:29;22.90;96.40
8475;DHT22;4274;52.012;8.448;2022-09-09T13:12:55;22.80;96.50
8475;DHT22;4274;52.012;8.448;2022-09-09T13:15:26;22.70;96.40
8475;DHT22;4274;52.012;8.448;2022-09-09T13:17:57;22.50;95.70
8475;DHT22;4274;52.012;8.448;2022-09-09T13:20:23;22.30;96.20
8475;DHT22;4274;52.012;8.448;2022-09-09T13:22:51;22.20;96.30
8475;DHT22;4274;52.012;8.448;2022-09-09T13:25:29;22.00;96.50
8475;DHT22;4274;52.012;8.448;2022-09-09T13:28:03;22.00;97.10
8475;DHT22;4274;52.012;8.448;2022-09-09T13:30:31;21.90;97.10
8475;DHT22;4274;52.012;8.448;2022-09-09T13:36:09;22.10;98.30
8475;DHT22;4274;52.012;8.448;2022-09-09T13:38:38;22.00;98.40
8475;DHT22;4274;52.012;8.448;2022-09-09T13:41:08;22.10;98.30
8475;DHT22;4274;52.012;8.448;2022-09-09T13:43:42;22.30;98.00
8475;DHT22;4274;52.012;8.448;2022-09-09T13:51:36;24.00;96.70
8475;DHT22;4274;52.012;8.448;2022-09-09T13:54:04;24.00;96.60
8475;DHT22;4274;52.012;8.448;2022-09-09T13:56:31;24.00;96.80
8475;DHT22;4274;52.012;8.448;2022-09-09T13:58:57;23.80;96.80
8475;DHT22;4274;52.012;8.448;2022-09-09T14:01:23;23.70;96.70
8475;DHT22;4274;52.012;8.448;2022-09-09T14:03:49;23.50;96.30
8475;DHT22;4274;52.012;8.448;2022-09-09T14:06:15;23.50;96.90
8475;DHT22;4274;52.012;8.448;2022-09-09T14:08:41;23.40;96.50
8475;DHT22;4274;52.012;8.448;2022-09-09T14:11:11;23.10;96.00
8475;DHT22;4274;52.012;8.448;2022-09-09T14:13:37;22.70;96.70
8475;DHT22;4274;52.012;8.448;2022-09-09T14:16:03;22.60;97.90
8475;DHT22;4274;52.012;8.448;2022-09-09T14:18:28;22.70;96.90
8475;DHT22;4274;52.012;8.448;2022-09-09T14:20:54;22.70;96.80
8475;DHT22;4274;52.012;8.448;2022-09-09T14:23:20;22.80;96.80
8475;DHT22;4274;52.012;8.448;2022-09-09T14:25:47;22.70;96.90
8475;DHT22;4274;52.012;8.448;2022-09-09T14:28:14;22.70;96.90
8475;DHT22;4274;52.012;8.448;2022-09-09T14:30:41;22.60;96.50
8475;DHT22;4274;52.012;8.448;2022-09-09T14:33:08;22.30;96.10
8475;DHT22;4274;52.012;8.448;2022-09-09T14:35:35;22.20;96.70
8475;DHT22;4274;52.012;8.448;2022-09-09T14:38:02;22.30;96.90
8475;DHT22;4274;52.012;8.448;2022-09-09T14:40:28;22.30;96.10
8475;DHT22;4274;52.012;8.448;2022-09-09T14:42:53;22.30;96.90
8475;DHT22;4274;52.012;8.448;2022-09-09T14:45:19;22.30;96.80
8475;DHT22;4274;52.012;8.448;2022-09-09T14:47:46;22.30;97.00
8475;DHT22;4274;52.012;8.448;2022-09-09T14:50:12;22.40;97.00
8475;DHT22;4274;52.012;8.448;2022-09-09T14:52:38;22.30;96.70
8475;DHT22;4274;52.012;8.448;2022-09-09T14:55:04;22.30;96.90
8475;DHT22;4274;52.012;8.448;2022-09-09T14:57:31;22.10;96.90
8475;DHT22;4274;52.012;8.448;2022-09-09T14:59:56;22.20;97.20
8475;DHT22;4274;52.012;8.448;2022-09-09T15:02:22;22.20;97.50
8475;DHT22;4274;52.012;8.448;2022-09-09T15:04:48;22.20;97.10
8475;DHT22;4274;52.012;8.448;2022-09-09T15:07:15;22.30;97.20
8475;DHT22;4274;52.012;8.448;2022-09-09T15:09:42;22.30;97.30
8475;DHT22;4274;52.012;8.448;2022-09-09T15:12:07;22.30;97.50
8475;DHT22;4274;52.012;8.448;2022-09-09T15:14:33;22.20;97.80
8475;DHT22;4274;52.012;8.448;2022-09-09T15:17:00;22.10;97.90
8475;DHT22;4274;52.012;8.448;2022-09-09T15:19:26;22.10;98.30
8475;DHT22;4274;52.012;8.448;2022-09-09T15:21:52;21.90;98.40
8475;DHT22;4274;52.012;8.448;2022-09-09T15:24:17;21.80;98.40
8475;DHT22;4274;52.012;8.448;2022-09-09T15:26:43;21.70;98.60
8475;DHT22;4274;52.012;8.448;2022-09-09T15:29:08;21.60;99.10
8475;DHT22;4274;52.012;8.448;2022-09-09T15:31:34;21.40;99.10
8475;DHT22;4274;52.012;8.448;2022-09-09T15:34:03;21.30;99.10
8475;DHT22;4274;52.012;8.448;2022-09-09T15:36:31;21.30;99.10
8475;DHT22;4274;52.012;8.448;2022-09-09T15:38:58;21.20;99.90
8475;DHT22;4274;52.012;8.448;2022-09-09T15:41:24;21.10;99.90
8475;DHT22;4274;52.012;8.448;2022-09-09T15:43:52;20.90;99.90
8475;DHT22;4274;52.012;8.448;2022-09-09T15:46:43;20.80;99.90
8475;DHT22;4274;52.012;8.448;2022-09-09T15:49:11;20.70;99.90
8475;DHT22;4274;52.012;8.448;2022-09-09T15:51:39;20.60;99.90
8475;DHT22;4274;52.012;8.448;2022-09-09T15:54:05;20.50;99.90
8475;DHT22;4274;52.012;8.448;2022-09-09T15:56:31;20.40;99.90
8475;DHT22;4274;52.012;8.448;2022-09-09T15:58:58;20.30;99.90
8475;DHT22;4274;52.012;8.448;2022-09-09T16:01:25;20.20;99.90
8475;DHT22;4274;52.012;8.448;2022-09-09T16:03:51;20.10;99.90
8475;DHT22;4274;52.012;8.448;2022-09-09T16:06:19;20.10;99.90
8475;DHT22;4274;52.012;8.448;2022-09-09T16:08:48;20.10;99.90
8475;DHT22;4274;52.012;8.448;2022-09-09T16:11:23;20.00;99.90
8475;DHT22;4274;52.012;8.448;2022-09-09T16:13:50;20.00;99.90
8475;DHT22;4274;52.012;8.448;2022-09-09T16:16:18;20.00;99.90
8475;DHT22;4274;52.012;8.448;2022-09-09T16:18:50;20.00;99.90
8475;DHT22;4274;52.012;8.448;2022-09-09T16:21:25;20.00;99.90
8475;DHT22;4274;52.012;8.448;2022-09-09T16:23:52;20.10;99.90
8475;DHT22;4274;52.012;8.448;2022-09-09T16:26:22;20.20;99.90
8475;DHT22;4274;52.012;8.448;2022-09-09T16:28:48;20.30;99.90
8475;DHT22;4274;52.012;8.448;2022-09-09T16:31:19;20.30;99.90
8475;DHT22;4274;52.012;8.448;2022-09-09T16:33:46;20.40;99.90
8475;DHT22;4274;52.012;8.448;2022-09-09T16:36:14;20.30;99.90
8475;DHT22;4274;52.012;8.448;2022-09-09T16:38:41;20.20;99.90
8475;DHT22;4274;52.012;8.448;2022-09-09T16:41:10;20.10;99.90
8475;DHT22;4274;52.012;8.448;2022-09-09T16:43:37;20.10;99.90
8475;DHT22;4274;52.012;8.448;2022-09-09T16:46:08;20.00;99.90
8475;DHT22;4274;52.012;8.448;2022-09-09T16:48:36;19.90;99.90
8475;DHT22;4274;52.012;8.448;2022-09-09T16:51:05;19.90;99.90
8475;DHT22;4274;52.012;8.448;2022-09-09T16:53:32;19.80;99.90
8475;DHT22;4274;52.012;8.448;2022-09-09T16:55:57;19.70;99.90
8475;DHT22;4274;52.012;8.448;2022-09-09T16:58:23;19.60;99.90
8475;DHT22;4274;52.012;8.448;2022-09-09T17:00:49;19.60;99.90
8475;DHT22;4274;52.012;8.448;2022-09-09T17:03:16;19.50;99.90
8475;DHT22;4274;52.012;8.448;2022-09-09T17:05:42;19.40;99.90
8475;DHT22;4274;52.012;8.448;2022-09-09T17:08:09;19.30;99.90
8475;DHT22;4274;52.012;8.448;2022-09-09T17:10:40;19.20;99.90
8475;DHT22;4274;52.012;8.448;2022-09-09T17:13:06;19.20;99.90
8475;DHT22;4274;52.012;8.448;2022-09-09T17:15:31;19.10;99.90
8475;DHT22;4274;52.012;8.448;2022-09-09T17:17:57;19.10;99.90
8475;DHT22;4274;52.012;8.448;2022-09-09T17:20:22;19.00;99.90
8475;DHT22;4274;52.012;8.448;2022-09-09T17:22:48;18.90;99.90
8475;DHT22;4274;52.012;8.448;2022-09-09T17:25:14;18.90;99.90
8475;DHT22;4274;52.012;8.448;2022-09-09T17:27:40;18.70;99.90
8475;DHT22;4274;52.012;8.448;2022-09-09T17:30:06;18.60;99.90
8475;DHT22;4274;52.012;8.448;2022-09-09T17:32:32;18.40;99.90
8475;DHT22;4274;52.012;8.448;2022-09-09T17:34:57;18.10;99.90
8475;DHT22;4274;52.012;8.448;2022-09-09T17:37:23;18.00;99.90
8475;DHT22;4274;52.012;8.448;2022-09-09T17:39:48;17.80;99.90
8475;DHT22;4274;52.012;8.448;2022-09-09T17:42:15;17.70;99.90
8475;DHT22;4274;52.012;8.448;2022-09-09T17:44:40;17.60;99.90
8475;DHT22;4274;52.012;8.448;2022-09-09T17:47:07;17.50;99.90
8475;DHT22;4274;52.012;8.448;2022-09-09T17:49:32;17.40;99.90
8475;DHT22;4274;52.012;8.448;2022-09-09T17:51:58;17.30;99.90
8475;DHT22;4274;52.012;8.448;2022-09-09T17:54:24;17.30;99.90
8475;DHT22;4274;52.012;8.448;2022-09-09T17:56:50;17.20;99.90
8475;DHT22;4274;52.012;8.448;2022-09-09T17:59:16;17.20;99.90
8475;DHT22;4274;52.012;8.448;2022-09-09T18:01:45;17.10;99.90